createdAt,value
2023-01-03T00:01:33.243Z,9.66
2023-01-03T00:04:02.233Z,9.66
2023-01-03T00:06:31.543Z,9.64
2023-01-03T00:09:00.751Z,9.62
2023-01-03T00:11:50.528Z,9.60
2023-01-03T00:14:25.714Z,9.57
2023-01-03T00:16:56.040Z,9.55
2023-01-03T00:19:25.671Z,9.52
2023-01-03T00:21:53.684Z,9.50
2023-01-03T00:24:21.848Z,9.48
2023-01-03T00:26:49.921Z,9.43
2023-01-03T00:29:17.910Z,9.39
2023-01-03T00:31:45.596Z,9.38
2023-01-03T00:34:13.493Z,9.37
2023-01-03T00:36:41.190Z,9.33
2023-01-03T00:39:09.235Z,9.32
2023-01-03T00:41:36.978Z,9.31
2023-01-03T00:44:05.430Z,9.31
2023-01-03T00:46:33.149Z,9.29
2023-01-03T00:49:00.981Z,9.30
2023-01-03T00:51:32.800Z,9.30
2023-01-03T00:54:01.941Z,9.30
2023-01-03T00:56:35.431Z,9.30
2023-01-03T00:59:03.666Z,9.31
2023-01-03T01:01:46.154Z,9.26
2023-01-03T01:04:17.826Z,9.19
2023-01-03T01:06:51.606Z,9.18
2023-01-03T01:09:25.351Z,9.17
2023-01-03T01:11:53.720Z,9.17
2023-01-03T01:14:25.198Z,9.17
2023-01-03T01:16:56.572Z,9.17
2023-01-03T01:19:27.286Z,9.18
2023-01-03T01:21:55.582Z,9.20
2023-01-03T01:24:23.565Z,9.18
2023-01-03T01:26:51.889Z,9.16
2023-01-03T01:29:20.273Z,9.18
2023-01-03T01:31:48.695Z,9.17
2023-01-03T01:34:17.192Z,9.17
2023-01-03T01:36:46.571Z,9.15
2023-01-03T01:39:21.130Z,9.15
2023-01-03T01:42:14.995Z,9.15
2023-01-03T01:44:53.332Z,9.15
2023-01-03T01:47:56.735Z,9.15
2023-01-03T01:50:41.635Z,9.12
2023-01-03T01:53:17.323Z,9.10
2023-01-03T01:55:50.227Z,9.10
2023-01-03T01:58:18.629Z,9.08
2023-01-03T02:00:46.644Z,9.07
2023-01-03T02:03:14.916Z,9.06
2023-01-03T02:05:54.700Z,9.05
2023-01-03T02:08:23.284Z,9.02
2023-01-03T02:10:50.855Z,8.99
2023-01-03T02:13:30.372Z,8.97
2023-01-03T02:16:03.871Z,8.96
2023-01-03T02:18:48.040Z,8.96
2023-01-03T02:21:34.156Z,8.98
2023-01-03T02:24:32.742Z,8.97
2023-01-03T02:27:41.191Z,8.97
2023-01-03T02:30:42.068Z,8.97
2023-01-03T02:33:09.722Z,8.96
2023-01-03T02:36:03.317Z,8.92
2023-01-03T02:38:30.996Z,8.89
2023-01-03T02:41:29.868Z,8.88
2023-01-03T02:44:07.090Z,8.87
2023-01-03T02:46:49.977Z,8.78
2023-01-03T02:49:26.035Z,8.79
2023-01-03T02:51:57.362Z,8.74
2023-01-03T02:54:31.885Z,8.73
2023-01-03T02:57:08.151Z,8.71
2023-01-03T02:59:47.133Z,8.70
2023-01-03T03:02:16.689Z,8.71
2023-01-03T03:04:48.220Z,8.73
2023-01-03T03:07:21.903Z,8.72
2023-01-03T03:10:09.025Z,8.72
2023-01-03T03:12:58.240Z,8.70
2023-01-03T03:15:42.060Z,8.71
2023-01-03T03:18:16.135Z,8.69
2023-01-03T03:21:02.667Z,8.67
2023-01-03T03:23:54.074Z,8.61
2023-01-03T03:26:26.919Z,8.59
2023-01-03T03:29:01.731Z,8.59
2023-01-03T03:31:44.099Z,8.51
2023-01-03T03:34:39.177Z,8.52
2023-01-03T03:37:15.995Z,8.45
2023-01-03T03:40:04.957Z,8.38
2023-01-03T03:43:06.798Z,8.34
2023-01-03T03:49:40.984Z,8.28
2023-01-03T03:52:19.039Z,8.29
2023-01-03T03:54:54.677Z,8.30
2023-01-03T03:57:27.206Z,8.28
2023-01-03T04:00:02.161Z,8.27
2023-01-03T04:02:33.983Z,8.25
2023-01-03T04:05:07.116Z,8.21
2023-01-03T04:07:36.017Z,8.19
2023-01-03T04:10:03.867Z,8.17
2023-01-03T04:12:31.530Z,8.16
2023-01-03T04:14:59.199Z,8.16
2023-01-03T04:17:26.917Z,8.18
2023-01-03T04:19:54.636Z,8.15
2023-01-03T04:22:22.370Z,8.14
2023-01-03T04:24:49.999Z,8.13
2023-01-03T04:27:17.677Z,8.13
2023-01-03T04:29:45.449Z,8.13
2023-01-03T04:32:13.234Z,8.12
2023-01-03T04:34:40.986Z,8.15
2023-01-03T04:37:08.806Z,8.15
2023-01-03T04:39:36.414Z,8.18
2023-01-03T04:42:24.241Z,8.19
2023-01-03T04:44:52.021Z,8.17
2023-01-03T04:47:20.382Z,8.18
2023-01-03T04:49:49.380Z,8.19
2023-01-03T04:52:17.538Z,8.20
2023-01-03T04:54:45.358Z,8.16
2023-01-03T04:57:13.091Z,8.15
2023-01-03T04:59:40.809Z,8.15
2023-01-03T05:02:08.690Z,8.10
2023-01-03T05:04:36.506Z,8.09
2023-01-03T05:07:04.159Z,8.07
2023-01-03T05:09:31.933Z,8.04
2023-01-03T05:11:59.646Z,8.04
2023-01-03T05:14:27.280Z,8.00
2023-01-03T05:16:54.996Z,8.00
2023-01-03T05:19:22.799Z,7.96
2023-01-03T05:22:09.041Z,7.94
2023-01-03T05:24:55.195Z,7.94
2023-01-03T05:27:23.337Z,7.93
2023-01-03T05:29:53.399Z,7.91
2023-01-03T05:32:21.864Z,7.89
2023-01-03T05:34:49.607Z,7.86
2023-01-03T05:37:17.270Z,7.84
2023-01-03T05:39:45.041Z,7.81
2023-01-03T05:42:12.684Z,7.79
2023-01-03T05:44:40.329Z,7.74
2023-01-03T05:47:08.060Z,7.72
2023-01-03T05:49:36.743Z,7.70
2023-01-03T05:52:04.910Z,7.69
2023-01-03T05:54:32.573Z,7.69
2023-01-03T05:57:00.218Z,7.68
2023-01-03T05:59:28.149Z,7.70
2023-01-03T06:01:55.997Z,7.70
2023-01-03T06:04:23.823Z,7.68
2023-01-03T06:06:51.559Z,7.68
2023-01-03T06:09:19.391Z,7.67
2023-01-03T06:11:47.161Z,7.67
2023-01-03T06:14:14.869Z,7.65
2023-01-03T06:17:01.199Z,7.65
2023-01-03T06:19:28.975Z,7.61
2023-01-03T06:21:56.710Z,7.56
2023-01-03T06:24:24.406Z,7.57
2023-01-03T06:26:52.140Z,7.57
2023-01-03T06:29:19.996Z,7.56
2023-01-03T06:31:47.878Z,7.55
2023-01-03T06:34:15.801Z,7.53
2023-01-03T06:36:43.607Z,7.52
2023-01-03T06:39:11.287Z,7.49
2023-01-03T06:41:38.920Z,7.50
2023-01-03T06:44:06.589Z,7.47
2023-01-03T06:46:53.227Z,7.46
2023-01-03T06:49:39.516Z,7.44
2023-01-03T06:52:35.402Z,7.41
2023-01-03T06:55:03.519Z,7.32
2023-01-03T06:57:31.247Z,7.31
2023-01-03T06:59:58.934Z,7.28
2023-01-03T07:02:27.019Z,7.28
2023-01-03T07:04:54.963Z,7.29
2023-01-03T07:07:22.656Z,7.23
2023-01-03T07:09:50.302Z,7.24
2023-01-03T07:12:39.118Z,7.20
2023-01-03T07:15:07.296Z,7.16
2023-01-03T07:17:34.984Z,7.11
2023-01-03T07:20:02.714Z,7.10
2023-01-03T07:22:30.339Z,7.10
2023-01-03T07:24:58.083Z,7.14
2023-01-03T07:27:25.751Z,7.12
2023-01-03T07:29:53.407Z,7.14
2023-01-03T07:32:21.139Z,7.13
2023-01-03T07:34:48.835Z,7.10
2023-01-03T07:37:16.555Z,7.12
2023-01-03T07:39:44.198Z,7.14
2023-01-03T07:42:30.593Z,7.12
2023-01-03T07:44:58.286Z,7.13
2023-01-03T07:47:25.910Z,7.12
2023-01-03T07:49:53.691Z,7.10
2023-01-03T07:52:21.328Z,7.10
2023-01-03T07:54:49.031Z,7.09
2023-01-03T07:57:17.009Z,7.05
2023-01-03T07:59:44.731Z,7.16
2023-01-03T08:02:12.626Z,7.33
2023-01-03T08:04:40.588Z,7.52
2023-01-03T08:07:08.396Z,7.72
2023-01-03T08:09:54.697Z,7.94
2023-01-03T08:12:41.072Z,8.14
2023-01-03T08:15:09.111Z,8.22
2023-01-03T08:17:36.795Z,8.44
2023-01-03T08:20:04.702Z,8.56
2023-01-03T08:22:34.236Z,8.67
2023-01-03T08:25:01.922Z,8.83
2023-01-03T08:27:29.545Z,8.94
2023-01-03T08:29:57.234Z,9.02
2023-01-03T08:32:25.221Z,9.15
2023-01-03T08:34:53.103Z,9.23
2023-01-03T08:37:21.330Z,9.37
2023-01-03T08:39:55.133Z,9.54
2023-01-03T08:42:24.489Z,9.67
2023-01-03T08:44:59.451Z,9.75
2023-01-03T08:47:27.540Z,9.87
2023-01-03T08:49:56.737Z,10.01
2023-01-03T08:52:26.072Z,10.11
2023-01-03T08:54:55.396Z,10.23
2023-01-03T08:57:23.163Z,10.30
2023-01-03T08:59:50.876Z,10.30
2023-01-03T09:02:18.720Z,10.33
2023-01-03T09:04:46.511Z,10.34
2023-01-03T09:07:14.184Z,10.38
2023-01-03T09:09:42.390Z,10.34
2023-01-03T09:12:10.014Z,10.29
2023-01-03T09:14:37.685Z,10.31
2023-01-03T09:17:05.380Z,10.09
2023-01-03T09:19:32.991Z,9.79
2023-01-03T09:22:00.634Z,9.53
2023-01-03T09:24:28.305Z,9.25
2023-01-03T09:26:56.069Z,9.33
2023-01-03T09:29:24.139Z,9.42
2023-01-03T09:31:52.119Z,9.42
2023-01-03T09:34:20.142Z,9.51
2023-01-03T09:36:47.826Z,9.49
2023-01-03T09:39:15.643Z,9.54
2023-01-03T09:41:44.968Z,9.52
2023-01-03T09:44:12.649Z,9.57
2023-01-03T09:46:40.488Z,9.69
2023-01-03T09:49:08.711Z,9.81
2023-01-03T09:51:58.416Z,9.99
2023-01-03T09:54:50.054Z,10.14
2023-01-03T09:57:48.540Z,10.28
2023-01-03T10:01:00.942Z,10.55
2023-01-03T10:03:51.349Z,10.71
2023-01-03T10:06:28.616Z,10.84
2023-01-03T10:09:14.628Z,10.80
2023-01-03T10:12:03.272Z,10.80
2023-01-03T10:14:43.125Z,10.77
2023-01-03T10:17:27.260Z,10.70
2023-01-03T10:20:16.079Z,10.72
2023-01-03T10:22:45.756Z,10.64
2023-01-03T10:25:20.304Z,10.62
2023-01-03T10:27:57.986Z,10.69
2023-01-03T10:31:08.004Z,10.68
2023-01-03T10:33:47.300Z,10.66
2023-01-03T10:36:17.591Z,10.61
2023-01-03T10:38:52.993Z,10.57
2023-01-03T10:41:45.469Z,10.54
2023-01-03T10:44:26.082Z,10.47
2023-01-03T10:46:56.272Z,10.26
2023-01-03T10:49:29.548Z,10.21
2023-01-03T10:52:25.049Z,10.16
2023-01-03T10:55:01.895Z,10.23
2023-01-03T10:57:49.360Z,10.30
2023-01-03T11:00:31.169Z,10.21
2023-01-03T11:03:14.290Z,10.02
2023-01-03T11:05:44.452Z,9.87
2023-01-03T11:08:22.196Z,9.76
2023-01-03T11:10:59.305Z,9.67
2023-01-03T11:13:36.146Z,9.55
2023-01-03T11:16:13.803Z,9.43
2023-01-03T11:18:43.155Z,9.35
2023-01-03T11:21:24.459Z,9.32
2023-01-03T11:24:25.300Z,9.20
2023-01-03T11:27:02.188Z,9.21
2023-01-03T11:29:52.320Z,9.16
2023-01-03T11:32:41.430Z,9.13
2023-01-03T11:35:39.330Z,9.05
2023-01-03T11:38:36.678Z,8.97
2023-01-03T11:41:25.470Z,8.89
2023-01-03T11:44:23.594Z,8.89
2023-01-03T11:47:08.652Z,8.84
2023-01-03T11:50:15.826Z,8.84
2023-01-03T11:52:49.340Z,8.78
2023-01-03T11:55:32.165Z,8.76
2023-01-03T11:58:24.820Z,8.78
2023-01-03T12:01:05.703Z,8.76
2023-01-03T12:03:58.446Z,8.77
2023-01-03T12:06:59.656Z,8.74
2023-01-03T12:09:55.389Z,8.74
2023-01-03T12:12:38.031Z,8.76
2023-01-03T12:15:40.850Z,8.80
2023-01-03T12:18:28.625Z,8.78
2023-01-03T12:21:03.690Z,8.78
2023-01-03T12:23:34.223Z,8.79
2023-01-03T12:26:06.844Z,8.80
2023-01-03T12:28:40.199Z,8.79
2023-01-03T12:31:35.802Z,8.73
2023-01-03T12:34:03.532Z,8.73
2023-01-03T12:36:53.894Z,8.74
2023-01-03T12:39:56.597Z,8.72
2023-01-03T12:42:30.356Z,8.67
2023-01-03T12:45:13.683Z,8.65
2023-01-03T12:47:50.988Z,8.70
2023-01-03T12:50:26.823Z,8.70
2023-01-03T12:53:20.197Z,8.71
2023-01-03T12:56:18.788Z,8.70
2023-01-03T12:59:08.133Z,8.71
2023-01-03T13:01:49.558Z,8.73
2023-01-03T13:04:24.108Z,8.71
2023-01-03T13:07:07.201Z,8.72
2023-01-03T13:09:42.222Z,8.72
2023-01-03T13:12:16.716Z,8.65
2023-01-03T13:15:04.175Z,8.66
2023-01-03T13:17:42.912Z,8.66
2023-01-03T13:20:32.485Z,8.65
2023-01-03T13:23:22.870Z,8.64
2023-01-03T13:26:20.445Z,8.61
2023-01-03T13:28:48.138Z,8.58
2023-01-03T13:31:15.861Z,8.58
2023-01-03T13:33:58.657Z,8.58
2023-01-03T13:36:26.495Z,8.60
2023-01-03T13:38:54.232Z,8.57
2023-01-03T13:41:38.259Z,8.57
2023-01-03T13:44:18.745Z,8.56
2023-01-03T13:46:48.888Z,8.60
2023-01-03T13:49:23.238Z,8.60
2023-01-03T13:51:52.697Z,8.59
2023-01-03T13:54:20.248Z,8.63
2023-01-03T13:56:50.665Z,8.61
2023-01-03T13:59:43.768Z,8.61
2023-01-03T14:02:14.576Z,8.50
2023-01-03T14:05:21.350Z,8.50
2023-01-03T14:07:59.011Z,8.51
2023-01-03T14:10:39.106Z,8.52
2023-01-03T14:13:12.596Z,8.50
2023-01-03T14:15:40.405Z,8.52
2023-01-03T14:18:17.133Z,8.57
2023-01-03T14:20:49.208Z,8.57
2023-01-03T14:26:15.802Z,8.60
2023-01-03T14:28:49.090Z,8.63
2023-01-03T14:31:28.835Z,8.65
2023-01-03T14:34:02.083Z,8.65
2023-01-03T14:36:30.359Z,8.65
2023-01-03T14:39:00.886Z,8.64
2023-01-03T14:41:28.731Z,8.67
2023-01-03T14:44:02.154Z,8.64
2023-01-03T14:46:31.755Z,8.60
2023-01-03T14:49:03.829Z,8.63
2023-01-03T14:51:34.715Z,8.65
2023-01-03T14:54:03.630Z,8.65
2023-01-03T14:56:32.138Z,8.67
2023-01-03T14:59:01.468Z,8.69
2023-01-03T15:01:29.882Z,8.71
2023-01-03T15:03:58.148Z,8.72
2023-01-03T15:06:31.619Z,8.73
2023-01-03T15:09:02.279Z,8.77
2023-01-03T15:11:58.124Z,8.76
2023-01-03T15:14:31.501Z,8.76
2023-01-03T15:17:17.369Z,8.74
2023-01-03T15:19:54.408Z,8.70
2023-01-03T15:22:40.537Z,8.67
2023-01-03T15:25:22.127Z,8.62
2023-01-03T15:27:51.607Z,8.62
2023-01-03T15:30:25.809Z,8.61
2023-01-03T15:32:57.960Z,8.59
2023-01-03T15:35:38.019Z,8.57
2023-01-03T15:38:33.691Z,8.55
2023-01-03T15:41:02.701Z,8.55
2023-01-03T15:43:39.196Z,8.54
2023-01-03T15:46:13.847Z,8.57
2023-01-03T15:48:44.957Z,8.54
2023-01-03T15:51:12.745Z,8.51
2023-01-03T15:53:44.477Z,8.51
2023-01-03T15:56:18.934Z,8.49
2023-01-03T15:58:49.488Z,8.46
2023-01-03T16:01:19.738Z,8.44
2023-01-03T16:03:49.474Z,8.42
2023-01-03T16:06:17.689Z,8.44
2023-01-03T16:08:46.031Z,8.42
2023-01-03T16:11:21.250Z,8.43
2023-01-03T16:14:21.269Z,8.44
2023-01-03T16:16:53.639Z,8.42
2023-01-03T16:19:24.121Z,8.43
2023-01-03T16:22:32.890Z,8.44
2023-01-03T16:24:43.174Z,8.44
2023-01-03T16:27:14.870Z,8.43
2023-01-03T16:29:42.790Z,8.47
2023-01-03T16:32:28.625Z,8.48
2023-01-03T16:35:02.779Z,8.49
2023-01-03T16:37:30.508Z,8.49
2023-01-03T16:39:59.349Z,8.50
2023-01-03T16:42:30.169Z,8.50
2023-01-03T16:44:58.989Z,8.54
2023-01-03T16:47:32.107Z,8.51
2023-01-03T16:50:13.048Z,8.50
2023-01-03T16:52:44.154Z,8.51
2023-01-03T16:55:29.522Z,8.51
2023-01-03T16:57:58.134Z,8.50
2023-01-03T17:00:28.861Z,8.50
2023-01-03T17:02:57.682Z,8.48
2023-01-03T17:05:27.543Z,8.46
2023-01-03T17:08:02.805Z,8.44
2023-01-03T17:10:39.865Z,8.41
2023-01-03T17:13:12.865Z,8.40
2023-01-03T17:15:42.370Z,8.40
2023-01-03T17:18:20.583Z,8.39
2023-01-03T17:20:53.540Z,8.38
2023-01-03T17:23:21.547Z,8.38
2023-01-03T17:25:49.804Z,8.37
2023-01-03T17:28:17.764Z,8.36
2023-01-03T17:30:45.640Z,8.36
2023-01-03T17:33:16.807Z,8.38
2023-01-03T17:35:47.250Z,8.37
2023-01-03T17:38:26.444Z,8.38
2023-01-03T17:40:56.332Z,8.38
2023-01-03T17:43:26.041Z,8.40
2023-01-03T17:46:22.657Z,8.42
2023-01-03T17:49:29.937Z,8.41
2023-01-03T17:52:01.273Z,8.36
2023-01-03T17:54:31.961Z,8.27
2023-01-03T17:57:03.433Z,8.23
2023-01-03T17:59:31.269Z,8.19
2023-01-03T18:01:59.551Z,8.17
2023-01-03T18:04:44.002Z,8.15
2023-01-03T18:07:24.550Z,8.07
2023-01-03T18:09:54.565Z,7.98
2023-01-03T18:12:24.866Z,7.94
2023-01-03T18:14:52.496Z,7.94
2023-01-03T18:17:29.220Z,7.92
2023-01-03T18:19:58.656Z,7.90
2023-01-03T18:22:27.166Z,7.82
2023-01-03T18:24:56.231Z,7.82
2023-01-03T18:27:26.620Z,7.76
2023-01-03T18:29:54.291Z,7.70
2023-01-03T18:32:35.582Z,7.62
2023-01-03T18:35:03.719Z,7.61
2023-01-03T18:37:38.547Z,7.54
2023-01-03T18:40:08.327Z,7.51
2023-01-03T18:42:55.500Z,7.44
2023-01-03T18:45:23.298Z,7.43
2023-01-03T18:47:50.959Z,7.34
2023-01-03T18:50:20.494Z,7.29
2023-01-03T18:52:49.699Z,7.23
2023-01-03T18:55:24.730Z,7.22
2023-01-03T18:57:53.440Z,7.21
2023-01-03T19:00:26.162Z,7.18
2023-01-03T19:02:54.695Z,7.18
2023-01-03T19:05:22.577Z,7.13
2023-01-03T19:07:52.313Z,7.09
2023-01-03T19:10:25.531Z,7.10
2023-01-03T19:12:57.588Z,7.11
2023-01-03T19:15:29.422Z,7.09
2023-01-03T19:17:57.926Z,7.08
2023-01-03T19:20:27.348Z,7.10
2023-01-03T19:22:56.258Z,7.10
2023-01-03T19:25:32.007Z,7.03
2023-01-03T19:28:03.277Z,6.97
2023-01-03T19:30:37.423Z,6.91
2023-01-03T19:33:07.315Z,6.87
2023-01-03T19:35:35.113Z,6.84
2023-01-03T19:38:03.291Z,6.80
2023-01-03T19:40:34.757Z,6.83
2023-01-03T19:43:02.898Z,6.86
2023-01-03T19:45:33.989Z,6.88
2023-01-03T19:48:04.987Z,6.85
2023-01-03T19:50:35.842Z,6.89
2023-01-03T19:53:03.914Z,6.87
2023-01-03T19:55:35.197Z,6.82
2023-01-03T19:58:06.391Z,6.84
2023-01-03T20:00:34.255Z,6.87
2023-01-03T20:03:08.382Z,6.92
2023-01-03T20:05:36.626Z,6.97
2023-01-03T20:08:12.250Z,7.03
2023-01-03T20:10:42.851Z,7.01
2023-01-03T20:13:20.852Z,7.06
2023-01-03T20:15:50.282Z,7.07
2023-01-03T20:18:31.602Z,7.08
2023-01-03T20:21:19.777Z,7.07
2023-01-03T20:23:55.153Z,7.08
2023-01-03T20:26:27.375Z,7.07
2023-01-03T20:28:56.833Z,7.10
2023-01-03T20:31:25.068Z,7.14
2023-01-03T20:33:55.465Z,7.19
2023-01-03T20:36:26.705Z,7.23
2023-01-03T20:38:56.752Z,7.25
2023-01-03T20:41:37.430Z,7.22
2023-01-03T20:44:09.072Z,7.20
2023-01-03T20:46:39.856Z,7.20
2023-01-03T20:49:15.649Z,7.18
2023-01-03T20:51:43.533Z,7.18
2023-01-03T20:54:11.960Z,7.18
2023-01-03T20:56:39.862Z,7.15
2023-01-03T20:59:07.815Z,7.15
2023-01-03T21:01:36.801Z,7.12
2023-01-03T21:04:04.796Z,7.06
2023-01-03T21:06:35.540Z,7.02
2023-01-03T21:09:03.225Z,6.98
2023-01-03T21:11:39.966Z,7.00
2023-01-03T21:14:08.546Z,7.00
2023-01-03T21:16:42.879Z,6.97
2023-01-03T21:19:13.386Z,6.97
2023-01-03T21:21:42.731Z,6.94
2023-01-03T21:24:12.775Z,6.91
2023-01-03T21:26:40.935Z,6.87
2023-01-03T21:29:09.100Z,6.83
2023-01-03T21:31:38.486Z,6.80
2023-01-03T21:34:08.142Z,6.76
2023-01-03T21:36:37.085Z,6.74
2023-01-03T21:39:05.807Z,6.73
2023-01-03T21:41:35.740Z,6.70
2023-01-03T21:44:05.743Z,6.68
2023-01-03T21:46:33.525Z,6.66
2023-01-03T21:49:01.399Z,6.65
2023-01-03T21:51:39.107Z,6.64
2023-01-03T21:54:10.752Z,6.62
2023-01-03T21:56:46.722Z,6.65
2023-01-03T21:59:16.489Z,6.66
2023-01-03T22:02:06.864Z,6.67
2023-01-03T22:04:34.940Z,6.66
2023-01-03T22:07:02.837Z,6.64
2023-01-03T22:09:50.905Z,6.63
2023-01-03T22:12:19.692Z,6.61
2023-01-03T22:14:48.178Z,6.59
2023-01-03T22:17:16.478Z,6.56
2023-01-03T22:19:44.386Z,6.53
2023-01-03T22:22:12.703Z,6.53
2023-01-03T22:24:40.473Z,6.48
2023-01-03T22:27:08.514Z,6.42
2023-01-03T22:29:36.183Z,6.42
2023-01-03T22:32:03.995Z,6.36
2023-01-03T22:34:31.825Z,6.28
2023-01-03T22:36:59.465Z,6.25
2023-01-03T22:39:27.100Z,6.22
2023-01-03T22:41:54.765Z,6.24
2023-01-03T22:44:22.423Z,6.23
2023-01-03T22:46:50.274Z,6.21
2023-01-03T22:49:17.889Z,6.20
2023-01-03T22:51:45.617Z,6.18
2023-01-03T22:54:13.469Z,6.14
2023-01-03T22:56:41.186Z,6.15
2023-01-03T22:59:09.073Z,6.17
2023-01-03T23:01:36.913Z,6.20
2023-01-03T23:04:07.770Z,6.19
2023-01-03T23:06:37.458Z,6.20
2023-01-03T23:09:05.874Z,6.20
2023-01-03T23:11:53.234Z,6.24
2023-01-03T23:14:22.715Z,6.28
2023-01-03T23:16:52.470Z,6.34
2023-01-03T23:19:22.214Z,6.33
2023-01-03T23:21:50.108Z,6.38
2023-01-03T23:24:26.568Z,6.41
2023-01-03T23:26:54.835Z,6.40
2023-01-03T23:29:23.512Z,6.42
2023-01-03T23:31:51.280Z,6.43
2023-01-03T23:34:19.239Z,6.46
2023-01-03T23:36:47.073Z,6.45
2023-01-03T23:39:17.197Z,6.45
2023-01-03T23:41:45.778Z,6.41
2023-01-03T23:44:13.855Z,6.42
2023-01-03T23:46:42.411Z,6.39
2023-01-03T23:49:13.516Z,6.41
2023-01-03T23:51:41.266Z,6.42
2023-01-03T23:54:09.202Z,6.46
2023-01-03T23:56:37.194Z,6.48
2023-01-03T23:59:05.251Z,6.47
